createdAt,value
2022-09-28T00:01:57.641Z,17.39
2022-09-28T00:04:52.802Z,17.55
2022-09-28T00:07:32.605Z,17.78
2022-09-28T00:10:30.220Z,17.87
2022-09-28T00:13:20.279Z,17.88
2022-09-28T00:16:06.770Z,17.94
2022-09-28T00:18:54.353Z,17.91
2022-09-28T00:24:42.312Z,18.32
2022-09-28T00:30:23.259Z,18.51
2022-09-28T00:33:06.699Z,18.54
2022-09-28T00:35:49.915Z,18.59
2022-09-28T00:38:35.886Z,18.69
2022-09-28T00:41:25.617Z,18.87
2022-09-28T00:44:23.972Z,19.00
2022-09-28T00:47:18.000Z,19.05
2022-09-28T00:50:05.375Z,19.17
2022-09-28T00:53:00.627Z,19.20
2022-09-28T00:55:45.729Z,19.32
2022-09-28T00:58:46.659Z,19.39
2022-09-28T01:01:31.032Z,19.43
2022-09-28T01:04:11.908Z,19.55
2022-09-28T01:09:55.623Z,19.65
2022-09-28T01:12:32.959Z,19.63
2022-09-28T01:15:24.602Z,19.73
2022-09-28T01:18:24.226Z,19.96
2022-09-28T01:21:35.537Z,20.03
2022-09-28T01:25:00.386Z,20.02
2022-09-28T01:28:02.012Z,19.87
2022-09-28T01:30:59.140Z,19.93
2022-09-28T01:33:46.457Z,20.14
2022-09-28T01:36:26.336Z,20.26
2022-09-28T01:39:15.968Z,20.41
2022-09-28T01:41:56.856Z,20.49
2022-09-28T01:44:48.421Z,20.47
2022-09-28T01:47:40.597Z,20.48
2022-09-28T01:50:32.674Z,20.45
2022-09-28T01:53:18.736Z,20.50
2022-09-28T01:56:07.821Z,20.58
2022-09-28T01:58:50.861Z,20.70
2022-09-28T02:01:38.358Z,20.62
2022-09-28T02:04:24.355Z,20.72
2022-09-28T02:07:11.636Z,20.80
2022-09-28T02:10:06.115Z,20.87
2022-09-28T02:13:11.772Z,20.89
2022-09-28T02:16:05.197Z,20.93
2022-09-28T02:18:42.725Z,21.03
2022-09-28T02:21:35.538Z,21.10
2022-09-28T02:24:22.473Z,21.10
2022-09-28T02:27:07.850Z,21.09
2022-09-28T02:29:58.767Z,21.13
2022-09-28T02:32:44.081Z,21.15
2022-09-28T02:35:25.996Z,21.19
2022-09-28T02:38:09.348Z,21.27
2022-09-28T02:41:02.986Z,21.35
2022-09-28T02:43:57.046Z,21.32
2022-09-28T02:46:44.678Z,21.17
2022-09-28T02:49:35.275Z,21.32
2022-09-28T02:52:55.741Z,21.33
2022-09-28T02:56:03.402Z,21.19
2022-09-28T02:58:46.190Z,21.45
2022-09-28T03:01:38.918Z,21.56
2022-09-28T03:04:39.064Z,21.59
2022-09-28T03:07:28.927Z,21.49
2022-09-28T03:10:22.495Z,21.59
2022-09-28T03:13:26.644Z,21.60
2022-09-28T03:16:14.575Z,21.69
2022-09-28T03:18:53.620Z,21.84
2022-09-28T03:21:38.571Z,21.91
2022-09-28T03:24:15.595Z,21.92
2022-09-28T03:30:06.504Z,22.03
2022-09-28T03:32:46.180Z,22.04
2022-09-28T03:35:30.833Z,22.01
2022-09-28T03:38:12.711Z,22.08
2022-09-28T03:40:49.020Z,22.08
2022-09-28T03:43:40.858Z,22.08
2022-09-28T03:46:21.069Z,22.02
2022-09-28T03:48:58.042Z,22.07
2022-09-28T03:51:41.825Z,21.92
2022-09-28T03:54:28.784Z,22.10
2022-09-28T03:57:11.738Z,22.09
2022-09-28T03:59:58.146Z,22.08
2022-09-28T04:02:40.891Z,21.85
2022-09-28T04:05:19.457Z,22.10
2022-09-28T04:08:06.739Z,22.14
2022-09-28T04:10:47.133Z,22.16
2022-09-28T04:13:38.682Z,22.09
2022-09-28T04:16:25.497Z,22.08
2022-09-28T04:19:15.738Z,22.08
2022-09-28T04:22:15.220Z,22.03
2022-09-28T04:25:04.429Z,21.98
2022-09-28T04:27:58.633Z,22.01
2022-09-28T04:30:43.128Z,22.07
2022-09-28T04:33:33.797Z,22.05
2022-09-28T04:36:15.019Z,22.00
2022-09-28T04:39:05.028Z,21.89
2022-09-28T04:41:45.923Z,21.90
2022-09-28T04:44:27.133Z,21.97
2022-09-28T04:47:16.174Z,21.96
2022-09-28T04:49:52.337Z,22.04
2022-09-28T04:52:30.785Z,21.95
2022-09-28T04:55:14.718Z,21.98
2022-09-28T04:58:00.368Z,22.03
2022-09-28T05:00:53.833Z,22.00
2022-09-28T05:03:42.574Z,22.00
2022-09-28T05:06:55.535Z,21.95
2022-09-28T05:09:33.927Z,21.90
2022-09-28T05:12:11.164Z,21.89
2022-09-28T05:14:47.709Z,21.54
2022-09-28T05:20:19.265Z,21.79
2022-09-28T05:23:22.521Z,21.75
2022-09-28T05:26:03.181Z,21.72
2022-09-28T05:28:50.046Z,21.65
2022-09-28T05:31:27.173Z,21.60
2022-09-28T05:34:23.940Z,21.64
2022-09-28T05:37:04.346Z,21.53
2022-09-28T05:39:44.301Z,21.49
2022-09-28T05:42:25.662Z,21.41
2022-09-28T05:45:10.271Z,21.42
2022-09-28T05:47:47.722Z,21.39
2022-09-28T05:50:41.294Z,21.35
2022-09-28T05:53:33.927Z,21.34
2022-09-28T05:56:23.088Z,21.30
2022-09-28T05:59:02.120Z,21.13
2022-09-28T06:01:41.695Z,21.23
2022-09-28T06:04:35.461Z,21.21
2022-09-28T06:07:28.167Z,21.21
2022-09-28T06:10:14.781Z,21.16
2022-09-28T06:13:03.926Z,21.08
2022-09-28T06:15:47.992Z,20.87
2022-09-28T06:18:28.467Z,20.98
2022-09-28T06:21:34.088Z,20.92
2022-09-28T06:24:15.235Z,20.84
2022-09-28T06:26:53.105Z,20.80
2022-09-28T06:30:00.852Z,20.75
2022-09-28T06:32:37.121Z,20.71
2022-09-28T06:35:18.219Z,20.62
2022-09-28T06:38:16.873Z,20.52
2022-09-28T06:40:55.018Z,20.46
2022-09-28T06:43:34.525Z,20.40
2022-09-28T06:46:21.951Z,19.99
2022-09-28T06:48:58.308Z,20.28
2022-09-28T06:51:46.059Z,20.23
2022-09-28T06:54:23.835Z,20.14
2022-09-28T06:57:26.933Z,20.10
2022-09-28T07:00:10.672Z,20.02
2022-09-28T07:02:53.177Z,19.91
2022-09-28T07:05:32.813Z,19.79
2022-09-28T07:08:07.019Z,19.72
2022-09-28T07:10:48.496Z,19.58
2022-09-28T07:17:08.905Z,19.44
2022-09-28T07:19:46.933Z,19.36
2022-09-28T07:22:41.717Z,19.22
2022-09-28T07:25:25.064Z,19.13
2022-09-28T07:28:03.337Z,19.09
2022-09-28T07:30:43.219Z,18.70
2022-09-28T07:33:23.333Z,18.96
2022-09-28T07:36:14.961Z,18.85
2022-09-28T07:39:07.970Z,18.75
2022-09-28T07:42:02.587Z,18.66
2022-09-28T07:45:00.920Z,18.54
2022-09-28T07:47:36.734Z,18.43
2022-09-28T07:50:25.070Z,18.27
2022-09-28T07:53:27.138Z,18.17
2022-09-28T07:56:05.259Z,18.02
2022-09-28T07:58:46.003Z,17.85
2022-09-28T08:01:29.207Z,17.85
2022-09-28T08:04:16.663Z,17.81
2022-09-28T08:07:03.057Z,17.71
2022-09-28T08:09:47.655Z,17.60
2022-09-28T08:12:28.582Z,17.54
2022-09-28T08:15:14.968Z,17.44
2022-09-28T08:18:03.243Z,17.33
2022-09-28T08:21:03.366Z,17.23
2022-09-28T08:23:39.514Z,17.14
2022-09-28T08:26:43.765Z,17.19
2022-09-28T08:29:28.628Z,17.16
2022-09-28T08:32:16.038Z,17.11
2022-09-28T08:35:06.862Z,17.01
2022-09-28T08:37:56.023Z,16.97
2022-09-28T08:40:35.482Z,16.90
2022-09-28T08:43:22.901Z,16.85
2022-09-28T08:46:09.865Z,16.75
2022-09-28T08:52:10.204Z,16.84
2022-09-28T08:54:59.033Z,16.83
2022-09-28T08:57:48.705Z,16.79
2022-09-28T09:00:41.393Z,16.61
2022-09-28T09:03:30.100Z,16.77
2022-09-28T09:06:24.558Z,16.67
2022-09-28T09:09:17.488Z,16.75
2022-09-28T09:12:07.027Z,16.73
2022-09-28T09:15:08.202Z,16.77
2022-09-28T09:18:01.630Z,16.80
2022-09-28T09:20:50.966Z,16.60
2022-09-28T09:23:45.465Z,16.65
2022-09-28T09:26:34.884Z,16.52
2022-09-28T09:29:49.595Z,16.36
2022-09-28T09:32:50.876Z,16.15
2022-09-28T09:36:05.092Z,15.97
2022-09-28T09:38:57.522Z,15.81
2022-09-28T09:41:55.024Z,15.69
2022-09-28T09:44:57.848Z,15.20
2022-09-28T09:47:45.819Z,15.49
2022-09-28T09:50:42.596Z,15.40
2022-09-28T09:53:43.850Z,15.29
2022-09-28T09:56:34.689Z,15.20
2022-09-28T09:59:22.319Z,15.11
2022-09-28T10:02:18.123Z,15.08
2022-09-28T10:05:37.656Z,15.00
2022-09-28T10:08:28.688Z,14.93
2022-09-28T10:11:41.768Z,14.60
2022-09-28T10:14:40.913Z,14.81
2022-09-28T10:20:22.182Z,14.61
2022-09-28T10:26:25.553Z,14.62
2022-09-28T10:29:10.465Z,14.65
2022-09-28T10:31:51.857Z,14.62
2022-09-28T10:34:47.397Z,14.38
2022-09-28T10:37:30.966Z,14.71
2022-09-28T10:40:10.281Z,14.69
2022-09-28T10:42:51.762Z,14.64
2022-09-28T10:45:31.635Z,14.69
2022-09-28T10:48:13.078Z,14.61
2022-09-28T10:51:08.825Z,14.76
2022-09-28T10:53:55.549Z,14.67
2022-09-28T10:56:44.079Z,14.83
2022-09-28T10:59:56.650Z,14.92
2022-09-28T11:02:51.052Z,14.96
2022-09-28T11:05:36.891Z,15.08
2022-09-28T11:08:30.715Z,15.00
2022-09-28T11:11:35.606Z,15.23
2022-09-28T11:17:33.251Z,15.23
2022-09-28T11:20:45.513Z,15.37
2022-09-28T11:23:43.808Z,15.37
2022-09-28T11:26:26.868Z,15.42
2022-09-28T11:32:15.977Z,15.35
2022-09-28T11:35:11.379Z,15.44
2022-09-28T11:38:17.457Z,15.46
2022-09-28T11:41:39.001Z,15.46
2022-09-28T11:45:05.101Z,15.47
2022-09-28T11:47:56.177Z,15.46
2022-09-28T11:50:52.733Z,15.41
2022-09-28T11:53:40.691Z,15.27
2022-09-28T11:56:52.046Z,15.33
2022-09-28T11:59:54.612Z,14.77
2022-09-28T12:02:43.680Z,14.92
2022-09-28T12:05:28.975Z,14.93
2022-09-28T12:08:13.579Z,14.65
2022-09-28T12:10:56.814Z,14.75
2022-09-28T12:13:36.199Z,14.73
2022-09-28T12:19:45.715Z,14.55
2022-09-28T12:22:27.893Z,14.72
2022-09-28T12:25:10.837Z,14.80
2022-09-28T12:27:59.154Z,14.75
2022-09-28T12:30:51.122Z,14.58
2022-09-28T12:33:31.813Z,14.43
2022-09-28T12:36:18.624Z,14.35
2022-09-28T12:39:35.687Z,14.35
2022-09-28T12:42:35.612Z,14.35
2022-09-28T12:46:06.645Z,14.32
2022-09-28T12:52:16.216Z,14.44
2022-09-28T12:55:23.912Z,14.42
2022-09-28T12:58:37.801Z,14.20
2022-09-28T13:01:33.745Z,14.48
2022-09-28T13:04:40.042Z,14.49
2022-09-28T13:07:38.271Z,14.53
2022-09-28T13:10:19.364Z,14.61
2022-09-28T13:13:13.350Z,14.66
2022-09-28T13:15:59.231Z,14.65
2022-09-28T13:18:42.238Z,14.59
2022-09-28T13:21:36.941Z,14.44
2022-09-28T13:27:29.241Z,14.07
2022-09-28T13:33:20.230Z,13.80
2022-09-28T13:39:09.483Z,13.84
2022-09-28T13:42:14.228Z,13.75
2022-09-28T13:45:10.917Z,13.72
2022-09-28T13:48:20.535Z,13.70
2022-09-28T13:51:28.402Z,13.68
2022-09-28T13:54:22.445Z,13.61
2022-09-28T13:57:14.536Z,13.46
2022-09-28T14:00:23.722Z,13.37
2022-09-28T14:03:34.039Z,13.32
2022-09-28T14:06:35.822Z,13.30
2022-09-28T14:09:49.755Z,13.26
2022-09-28T14:13:08.601Z,13.16
2022-09-28T14:16:02.675Z,13.09
2022-09-28T14:18:47.981Z,13.04
2022-09-28T14:22:09.201Z,13.04
2022-09-28T14:25:12.017Z,13.06
2022-09-28T14:28:29.037Z,13.07
2022-09-28T14:31:11.781Z,12.96
2022-09-28T14:34:08.162Z,12.63
2022-09-28T14:37:21.894Z,12.71
2022-09-28T14:40:23.922Z,12.73
2022-09-28T14:43:28.280Z,12.83
2022-09-28T14:46:40.008Z,12.90
2022-09-28T14:50:05.190Z,12.92
2022-09-28T14:52:50.560Z,12.64
2022-09-28T14:55:34.350Z,12.79
2022-09-28T14:58:10.623Z,12.89
2022-09-28T15:00:59.425Z,12.82
2022-09-28T15:03:54.454Z,12.97
2022-09-28T15:06:56.601Z,13.00
2022-09-28T15:09:45.659Z,12.88
2022-09-28T15:12:38.234Z,12.59
2022-09-28T15:15:40.603Z,13.01
2022-09-28T15:18:35.829Z,13.10
2022-09-28T15:21:15.977Z,13.00
2022-09-28T15:23:53.441Z,13.14
2022-09-28T15:26:33.703Z,12.77
2022-09-28T15:29:38.585Z,13.28
2022-09-28T15:32:32.897Z,13.32
2022-09-28T15:35:23.337Z,12.99
2022-09-28T15:38:08.135Z,13.27
2022-09-28T15:40:51.172Z,13.31
2022-09-28T15:43:38.996Z,13.15
2022-09-28T15:46:19.775Z,13.25
2022-09-28T15:49:22.782Z,13.16
2022-09-28T15:57:55.480Z,13.19
2022-09-28T16:00:42.523Z,13.25
2022-09-28T16:03:33.264Z,13.31
2022-09-28T16:06:28.568Z,13.41
2022-09-28T16:12:31.189Z,13.61
2022-09-28T16:15:15.375Z,13.57
2022-09-28T16:21:10.219Z,13.87
2022-09-28T16:23:54.491Z,13.77
2022-09-28T16:26:40.392Z,13.70
2022-09-28T16:29:38.783Z,13.58
2022-09-28T16:32:52.524Z,13.53
2022-09-28T16:35:41.982Z,13.37
2022-09-28T16:41:12.089Z,12.86
2022-09-28T16:43:53.970Z,12.81
2022-09-28T16:46:55.708Z,12.76
2022-09-28T16:49:47.720Z,12.57
2022-09-28T16:52:41.848Z,12.57
2022-09-28T16:55:40.538Z,12.48
2022-09-28T16:58:17.927Z,12.25
2022-09-28T17:00:55.196Z,12.46
2022-09-28T17:03:36.047Z,12.50
2022-09-28T17:06:18.645Z,12.55
2022-09-28T17:08:59.770Z,12.68
2022-09-28T17:11:48.657Z,12.81
2022-09-28T17:14:38.598Z,12.88
2022-09-28T17:17:19.129Z,13.00
2022-09-28T17:20:35.293Z,13.00
2022-09-28T17:26:07.919Z,12.85
2022-09-28T17:28:44.459Z,13.10
2022-09-28T17:31:25.121Z,13.13
2022-09-28T17:34:18.060Z,13.14
2022-09-28T17:37:06.477Z,13.17
2022-09-28T17:39:43.826Z,13.08
2022-09-28T17:42:47.391Z,13.26
2022-09-28T17:48:26.351Z,13.34
2022-09-28T17:51:07.415Z,13.10
2022-09-28T17:53:55.620Z,13.40
2022-09-28T17:56:37.018Z,13.45
2022-09-28T17:59:19.846Z,13.50
2022-09-28T18:04:52.159Z,13.67
2022-09-28T18:07:44.197Z,13.70
2022-09-28T18:11:04.710Z,13.74
2022-09-28T18:13:42.719Z,13.75
2022-09-28T18:16:25.715Z,13.76
2022-09-28T18:19:09.314Z,13.77
2022-09-28T18:21:44.771Z,13.74
2022-09-28T18:24:30.169Z,13.42
2022-09-28T18:27:41.863Z,13.50
2022-09-28T18:30:26.578Z,13.42
2022-09-28T18:33:16.438Z,13.32
2022-09-28T18:36:01.734Z,13.16
2022-09-28T18:38:45.084Z,12.38
2022-09-28T18:41:25.595Z,12.55
2022-09-28T18:44:07.564Z,12.28
2022-09-28T18:46:57.198Z,12.11
2022-09-28T18:49:53.290Z,11.94
2022-09-28T18:52:32.575Z,11.82
2022-09-28T18:55:11.992Z,11.72
2022-09-28T18:57:49.548Z,11.64
2022-09-28T19:00:40.101Z,11.58
2022-09-28T19:03:34.590Z,11.54
2022-09-28T19:06:20.447Z,11.44
2022-09-28T19:12:22.361Z,11.33
2022-09-28T19:15:03.398Z,11.37
2022-09-28T19:18:04.008Z,11.35
2022-09-28T19:20:47.794Z,11.32
2022-09-28T19:23:25.190Z,11.31
2022-09-28T19:26:13.683Z,11.31
2022-09-28T19:29:25.025Z,11.30
2022-09-28T19:32:03.064Z,11.26
2022-09-28T19:34:49.450Z,11.17
2022-09-28T19:37:34.032Z,11.17
2022-09-28T19:40:22.335Z,11.15
2022-09-28T19:43:00.033Z,11.08
2022-09-28T19:45:46.774Z,11.06
2022-09-28T19:48:33.162Z,11.04
2022-09-28T19:51:18.455Z,10.98
2022-09-28T19:53:56.235Z,10.98
2022-09-28T19:56:51.712Z,10.94
2022-09-28T19:59:35.668Z,10.73
2022-09-28T20:02:16.906Z,10.86
2022-09-28T20:05:04.272Z,10.79
2022-09-28T20:07:40.670Z,10.83
2022-09-28T20:10:22.012Z,10.76
2022-09-28T20:13:04.373Z,10.74
2022-09-28T20:15:56.947Z,10.68
2022-09-28T20:18:46.306Z,10.67
2022-09-28T20:21:27.909Z,10.62
2022-09-28T20:24:18.405Z,10.55
2022-09-28T20:26:54.505Z,10.49
2022-09-28T20:29:33.629Z,10.55
2022-09-28T20:32:10.646Z,10.48
2022-09-28T20:35:02.510Z,10.54
2022-09-28T20:37:47.523Z,10.53
2022-09-28T20:40:36.447Z,10.54
2022-09-28T20:43:16.251Z,10.56
2022-09-28T20:46:01.921Z,10.57
2022-09-28T20:48:45.670Z,10.55
2022-09-28T20:51:32.059Z,10.46
2022-09-28T20:54:16.530Z,10.48
2022-09-28T20:57:02.633Z,10.48
2022-09-28T20:59:53.621Z,10.45
2022-09-28T21:02:45.459Z,10.44
2022-09-28T21:05:24.060Z,10.43
2022-09-28T21:08:08.868Z,10.44
2022-09-28T21:10:59.011Z,10.47
2022-09-28T21:13:49.238Z,10.54
2022-09-28T21:16:29.390Z,10.65
2022-09-28T21:19:04.701Z,10.73
2022-09-28T21:21:43.784Z,10.75
2022-09-28T21:24:32.200Z,10.79
2022-09-28T21:27:12.415Z,10.80
2022-09-28T21:29:58.513Z,10.88
2022-09-28T21:32:55.070Z,10.84
2022-09-28T21:35:34.166Z,10.92
2022-09-28T21:38:20.991Z,10.93
2022-09-28T21:44:06.659Z,10.82
2022-09-28T21:47:10.191Z,10.72
2022-09-28T21:50:00.093Z,10.78
2022-09-28T21:55:36.135Z,10.94
2022-09-28T21:58:27.909Z,11.05
2022-09-28T22:01:09.023Z,11.01
2022-09-28T22:03:56.203Z,11.13
2022-09-28T22:06:41.752Z,11.18
2022-09-28T22:09:27.124Z,11.20
2022-09-28T22:14:51.349Z,11.37
2022-09-28T22:17:28.967Z,11.28
2022-09-28T22:20:22.609Z,11.58
2022-09-28T22:23:04.078Z,11.60
2022-09-28T22:25:46.686Z,11.60
2022-09-28T22:28:27.027Z,11.66
2022-09-28T22:31:16.676Z,11.64
2022-09-28T22:33:58.206Z,11.70
2022-09-28T22:36:45.650Z,11.76
2022-09-28T22:39:25.811Z,11.87
2022-09-28T22:42:09.516Z,11.96
2022-09-28T22:44:51.628Z,12.04
2022-09-28T22:47:33.180Z,11.97
2022-09-28T22:50:16.365Z,12.20
2022-09-28T22:56:09.270Z,12.65
2022-09-28T22:58:53.714Z,12.75
2022-09-28T23:01:48.136Z,12.85
2022-09-28T23:04:34.936Z,12.81
2022-09-28T23:07:27.311Z,12.88
2022-09-28T23:10:13.715Z,13.01
2022-09-28T23:13:12.435Z,12.88
2022-09-28T23:16:02.947Z,13.05
2022-09-28T23:18:38.101Z,13.18
2022-09-28T23:21:21.932Z,13.00
2022-09-28T23:24:05.164Z,13.25
2022-09-28T23:26:58.552Z,13.45
2022-09-28T23:29:50.325Z,13.57
2022-09-28T23:32:38.484Z,13.15
2022-09-28T23:35:16.534Z,13.61
2022-09-28T23:38:02.894Z,13.68
2022-09-28T23:40:44.698Z,13.70
2022-09-28T23:43:27.167Z,13.71
2022-09-28T23:46:25.493Z,13.91
2022-09-28T23:49:15.357Z,14.06
2022-09-28T23:52:04.489Z,13.99
2022-09-28T23:55:03.985Z,13.96
2022-09-28T23:57:53.751Z,14.04
